sensor_id;sensor_type;location;lat;lon;timestamp;pressure;altitude;pressure_sealevel;temperature;humidity
6668;BME280;3370;47.712;9.082;2023-04-08T00:01:07;97255.53;;;6.21;92.90
6668;BME280;3370;47.712;9.082;2023-04-08T00:03:33;97261.25;;;6.30;93.36
6668;BME280;3370;47.712;9.082;2023-04-08T00:05:58;97258.91;;;6.21;93.61
6668;BME280;3370;47.712;9.082;2023-04-08T00:08:27;97266.44;;;6.27;94.32
6668;BME280;3370;47.712;9.082;2023-04-08T00:10:53;97253.44;;;6.37;92.61
6668;BME280;3370;47.712;9.082;2023-04-08T00:13:18;97261.47;;;6.21;93.75
6668;BME280;3370;47.712;9.082;2023-04-08T00:15:45;97264.06;;;6.20;93.02
6668;BME280;3370;47.712;9.082;2023-04-08T00:18:12;97264.09;;;6.18;93.85
6668;BME280;3370;47.712;9.082;2023-04-08T00:20:38;97263.44;;;6.10;95.06
6668;BME280;3370;47.712;9.082;2023-04-08T00:23:03;97266.63;;;6.18;94.62
6668;BME280;3370;47.712;9.082;2023-04-08T00:25:30;97270.91;;;6.18;95.87
6668;BME280;3370;47.712;9.082;2023-04-08T00:27:56;97263.28;;;6.16;97.11
6668;BME280;3370;47.712;9.082;2023-04-08T00:30:21;97261.41;;;6.24;96.84
6668;BME280;3370;47.712;9.082;2023-04-08T00:32:47;97265.63;;;6.25;97.08
6668;BME280;3370;47.712;9.082;2023-04-08T00:35:13;97269.78;;;6.29;97.28
6668;BME280;3370;47.712;9.082;2023-04-08T00:37:39;97267.97;;;6.35;96.92
6668;BME280;3370;47.712;9.082;2023-04-08T00:40:06;97267.97;;;6.35;97.11
6668;BME280;3370;47.712;9.082;2023-04-08T00:42:32;97274.81;;;6.32;97.93
6668;BME280;3370;47.712;9.082;2023-04-08T00:44:58;97274.91;;;6.29;98.95
6668;BME280;3370;47.712;9.082;2023-04-08T00:47:24;97272.44;;;6.25;99.96
6668;BME280;3370;47.712;9.082;2023-04-08T00:49:50;97273.16;;;6.31;100.00
6668;BME280;3370;47.712;9.082;2023-04-08T00:52:16;97271.69;;;6.21;100.00
6668;BME280;3370;47.712;9.082;2023-04-08T00:54:42;97266.81;;;6.10;100.00
6668;BME280;3370;47.712;9.082;2023-04-08T00:57:08;97274.06;;;5.91;100.00
6668;BME280;3370;47.712;9.082;2023-04-08T00:59:33;97275.16;;;5.80;100.00
6668;BME280;3370;47.712;9.082;2023-04-08T01:05:04;97268.91;;;5.93;100.00
6668;BME280;3370;47.712;9.082;2023-04-08T01:10:24;97261.75;;;5.71;100.00
6668;BME280;3370;47.712;9.082;2023-04-08T01:13:00;97253.22;;;5.71;100.00
6668;BME280;3370;47.712;9.082;2023-04-08T01:15:29;97259.28;;;5.67;100.00
6668;BME280;3370;47.712;9.082;2023-04-08T01:17:56;97271.94;;;5.73;100.00
6668;BME280;3370;47.712;9.082;2023-04-08T01:20:25;97262.72;;;5.66;100.00
6668;BME280;3370;47.712;9.082;2023-04-08T01:23:02;97260.97;;;5.68;100.00
6668;BME280;3370;47.712;9.082;2023-04-08T01:25:33;97262.81;;;5.61;100.00
6668;BME280;3370;47.712;9.082;2023-04-08T01:28:04;97264.44;;;5.64;100.00
6668;BME280;3370;47.712;9.082;2023-04-08T01:30:31;97262.16;;;5.53;100.00
6668;BME280;3370;47.712;9.082;2023-04-08T01:33:01;97254.13;;;5.70;100.00
6668;BME280;3370;47.712;9.082;2023-04-08T01:35:27;97249.34;;;5.54;100.00
6668;BME280;3370;47.712;9.082;2023-04-08T01:37:56;97250.34;;;5.47;100.00
6668;BME280;3370;47.712;9.082;2023-04-08T01:40:22;97256.41;;;5.42;100.00
6668;BME280;3370;47.712;9.082;2023-04-08T01:42:54;97257.94;;;5.50;100.00
6668;BME280;3370;47.712;9.082;2023-04-08T01:45:22;97254.38;;;5.57;100.00
6668;BME280;3370;47.712;9.082;2023-04-08T01:47:49;97254.50;;;5.53;100.00
6668;BME280;3370;47.712;9.082;2023-04-08T01:50:15;97250.13;;;5.58;100.00
6668;BME280;3370;47.712;9.082;2023-04-08T01:52:47;97265.72;;;5.46;100.00
6668;BME280;3370;47.712;9.082;2023-04-08T01:55:15;97264.75;;;5.51;100.00
6668;BME280;3370;47.712;9.082;2023-04-08T01:57:44;97255.41;;;5.49;100.00
6668;BME280;3370;47.712;9.082;2023-04-08T02:00:13;97257.94;;;5.50;100.00
6668;BME280;3370;47.712;9.082;2023-04-08T02:02:41;97258.09;;;5.44;100.00
6668;BME280;3370;47.712;9.082;2023-04-08T02:05:08;97252.97;;;5.44;100.00
6668;BME280;3370;47.712;9.082;2023-04-08T02:07:34;97252.97;;;5.44;100.00
6668;BME280;3370;47.712;9.082;2023-04-08T02:10:01;97253.81;;;5.45;100.00
6668;BME280;3370;47.712;9.082;2023-04-08T02:12:27;97252.13;;;5.44;100.00
6668;BME280;3370;47.712;9.082;2023-04-08T02:14:53;97258.69;;;5.55;100.00
6668;BME280;3370;47.712;9.082;2023-04-08T02:17:31;97261.44;;;5.46;100.00
6668;BME280;3370;47.712;9.082;2023-04-08T02:23:13;97259.69;;;5.48;100.00
6668;BME280;3370;47.712;9.082;2023-04-08T02:25:44;97261.19;;;5.59;100.00
6668;BME280;3370;47.712;9.082;2023-04-08T02:28:11;97263.69;;;5.60;100.00
6668;BME280;3370;47.712;9.082;2023-04-08T02:30:43;97263.09;;;5.47;100.00
6668;BME280;3370;47.712;9.082;2023-04-08T02:33:12;97271.84;;;5.37;100.00
6668;BME280;3370;47.712;9.082;2023-04-08T02:35:40;97268.91;;;5.54;100.00
6668;BME280;3370;47.712;9.082;2023-04-08T02:38:08;97265.06;;;5.34;100.00
6668;BME280;3370;47.712;9.082;2023-04-08T02:40:34;97270.88;;;5.43;100.00
6668;BME280;3370;47.712;9.082;2023-04-08T02:43:01;97267.59;;;5.36;100.00
6668;BME280;3370;47.712;9.082;2023-04-08T02:45:30;97272.72;;;5.34;100.00
6668;BME280;3370;47.712;9.082;2023-04-08T02:47:58;97271.84;;;5.37;100.00
6668;BME280;3370;47.712;9.082;2023-04-08T02:50:24;97275.25;;;5.36;100.00
6668;BME280;3370;47.712;9.082;2023-04-08T02:52:50;97264.19;;;5.37;100.00
6668;BME280;3370;47.712;9.082;2023-04-08T02:55:16;97266.66;;;5.40;100.00
6668;BME280;3370;47.712;9.082;2023-04-08T02:57:42;97276.84;;;5.40;100.00
6668;BME280;3370;47.712;9.082;2023-04-08T03:00:08;97266.59;;;5.43;100.00
6668;BME280;3370;47.712;9.082;2023-04-08T03:02:35;97266.56;;;5.45;100.00
6668;BME280;3370;47.712;9.082;2023-04-08T03:05:01;97267.28;;;5.51;100.00
6668;BME280;3370;47.712;9.082;2023-04-08T03:07:27;97272.38;;;5.53;100.00
6668;BME280;3370;47.712;9.082;2023-04-08T03:09:53;97267.25;;;5.53;100.00
6668;BME280;3370;47.712;9.082;2023-04-08T03:12:21;97270.63;;;5.55;100.00
6668;BME280;3370;47.712;9.082;2023-04-08T03:14:48;97267.09;;;5.61;100.00
6668;BME280;3370;47.712;9.082;2023-04-08T03:17:14;97269.53;;;5.64;100.00
6668;BME280;3370;47.712;9.082;2023-04-08T03:19:40;97271.19;;;5.68;100.00
6668;BME280;3370;47.712;9.082;2023-04-08T03:22:06;97271.09;;;5.71;100.00
6668;BME280;3370;47.712;9.082;2023-04-08T03:24:34;97272.72;;;5.75;100.00
6668;BME280;3370;47.712;9.082;2023-04-08T03:27:00;97264.19;;;5.76;100.00
6668;BME280;3370;47.712;9.082;2023-04-08T03:29:26;97276.06;;;5.77;100.00
6668;BME280;3370;47.712;9.082;2023-04-08T03:31:52;97276.84;;;5.81;100.00
6668;BME280;3370;47.712;9.082;2023-04-08T03:34:18;97278.47;;;5.83;100.00
6668;BME280;3370;47.712;9.082;2023-04-08T03:36:44;97284.38;;;5.85;100.00
6668;BME280;3370;47.712;9.082;2023-04-08T03:39:09;97280.09;;;5.87;100.00
6668;BME280;3370;47.712;9.082;2023-04-08T03:41:35;97274.88;;;5.92;100.00
6668;BME280;3370;47.712;9.082;2023-04-08T03:44:01;97279.16;;;5.91;100.00
6668;BME280;3370;47.712;9.082;2023-04-08T03:46:27;97273.09;;;5.97;100.00
6668;BME280;3370;47.712;9.082;2023-04-08T03:48:52;97269.72;;;5.95;100.00
6668;BME280;3370;47.712;9.082;2023-04-08T03:51:18;97280.97;;;5.86;100.00
6668;BME280;3370;47.712;9.082;2023-04-08T03:53:44;97276.59;;;5.93;100.00
6668;BME280;3370;47.712;9.082;2023-04-08T03:56:10;97274.91;;;5.90;100.00
6668;BME280;3370;47.712;9.082;2023-04-08T03:58:36;97280.81;;;5.92;100.00
6668;BME280;3370;47.712;9.082;2023-04-08T04:01:02;97286.81;;;5.91;100.00
6668;BME280;3370;47.712;9.082;2023-04-08T04:03:27;97282.50;;;5.97;100.00
6668;BME280;3370;47.712;9.082;2023-04-08T04:05:53;97286.84;;;5.90;100.00
6668;BME280;3370;47.712;9.082;2023-04-08T04:08:19;97274.47;;;5.73;100.00
6668;BME280;3370;47.712;9.082;2023-04-08T04:10:45;97279.63;;;5.70;100.00
6668;BME280;3370;47.712;9.082;2023-04-08T04:13:10;97274.75;;;5.61;100.00
6668;BME280;3370;47.712;9.082;2023-04-08T04:15:40;97275.78;;;5.52;100.00
6668;BME280;3370;47.712;9.082;2023-04-08T04:18:06;97277.59;;;5.45;100.00
6668;BME280;3370;47.712;9.082;2023-04-08T04:20:32;97281.78;;;5.49;100.00
6668;BME280;3370;47.712;9.082;2023-04-08T04:22:58;97284.22;;;5.54;100.00
6668;BME280;3370;47.712;9.082;2023-04-08T04:25:24;97284.16;;;5.59;100.00
6668;BME280;3370;47.712;9.082;2023-04-08T04:27:50;97287.50;;;5.61;100.00
6668;BME280;3370;47.712;9.082;2023-04-08T04:30:16;97286.34;;;5.74;100.00
6668;BME280;3370;47.712;9.082;2023-04-08T04:32:43;97285.53;;;5.72;100.00
6668;BME280;3370;47.712;9.082;2023-04-08T04:35:11;97286.31;;;5.75;100.00
6668;BME280;3370;47.712;9.082;2023-04-08T04:37:37;97287.09;;;5.79;100.00
6668;BME280;3370;47.712;9.082;2023-04-08T04:40:04;97289.63;;;5.79;100.00
6668;BME280;3370;47.712;9.082;2023-04-08T04:42:30;97284.69;;;5.73;100.00
6668;BME280;3370;47.712;9.082;2023-04-08T04:44:56;97281.50;;;5.62;100.00
6668;BME280;3370;47.712;9.082;2023-04-08T04:47:22;97281.69;;;5.54;100.00
6668;BME280;3370;47.712;9.082;2023-04-08T04:49:48;97285.16;;;5.51;100.00
6668;BME280;3370;47.712;9.082;2023-04-08T04:52:13;97287.59;;;5.54;100.00
6668;BME280;3370;47.712;9.082;2023-04-08T04:54:39;97287.66;;;5.53;100.00
6668;BME280;3370;47.712;9.082;2023-04-08T04:57:05;97289.31;;;5.54;100.00
6668;BME280;3370;47.712;9.082;2023-04-08T04:59:31;97293.66;;;5.50;100.00
6668;BME280;3370;47.712;9.082;2023-04-08T05:01:57;97293.66;;;5.50;100.00
6668;BME280;3370;47.712;9.082;2023-04-08T05:04:24;97299.69;;;5.46;100.00
6668;BME280;3370;47.712;9.082;2023-04-08T05:06:50;97308.13;;;5.50;100.00
6668;BME280;3370;47.712;9.082;2023-04-08T05:09:16;97313.91;;;5.56;100.00
6668;BME280;3370;47.712;9.082;2023-04-08T05:11:41;97312.22;;;5.57;100.00
6668;BME280;3370;47.712;9.082;2023-04-08T05:14:07;97311.31;;;5.60;100.00
6668;BME280;3370;47.712;9.082;2023-04-08T05:16:34;97314.88;;;5.51;100.00
6668;BME280;3370;47.712;9.082;2023-04-08T05:18:59;97312.41;;;5.49;100.00
6668;BME280;3370;47.712;9.082;2023-04-08T05:21:26;97325.19;;;5.48;100.00
6668;BME280;3370;47.712;9.082;2023-04-08T05:23:52;97321.66;;;5.53;100.00
6668;BME280;3370;47.712;9.082;2023-04-08T05:26:21;97317.22;;;5.62;100.00
6668;BME280;3370;47.712;9.082;2023-04-08T05:28:48;97322.25;;;5.65;100.00
6668;BME280;3370;47.712;9.082;2023-04-08T05:31:18;97316.16;;;5.72;100.00
6668;BME280;3370;47.712;9.082;2023-04-08T05:33:44;97322.97;;;5.73;100.00
6668;BME280;3370;47.712;9.082;2023-04-08T05:36:11;97315.16;;;5.79;100.00
6668;BME280;3370;47.712;9.082;2023-04-08T05:38:38;97318.38;;;5.87;100.00
6668;BME280;3370;47.712;9.082;2023-04-08T05:41:04;97318.53;;;5.80;100.00
6668;BME280;3370;47.712;9.082;2023-04-08T05:43:32;97325.31;;;5.82;100.00
6668;BME280;3370;47.712;9.082;2023-04-08T05:45:58;97320.06;;;5.88;100.00
6668;BME280;3370;47.712;9.082;2023-04-08T05:48:24;97324.09;;;6.00;100.00
6668;BME280;3370;47.712;9.082;2023-04-08T05:50:50;97329.25;;;5.97;100.00
6668;BME280;3370;47.712;9.082;2023-04-08T05:53:16;97327.50;;;5.99;100.00
6668;BME280;3370;47.712;9.082;2023-04-08T05:55:41;97328.38;;;5.98;100.00
6668;BME280;3370;47.712;9.082;2023-04-08T05:58:07;97338.56;;;6.00;100.00
6668;BME280;3370;47.712;9.082;2023-04-08T06:00:33;97335.22;;;5.94;100.00
6668;BME280;3370;47.712;9.082;2023-04-08T06:02:59;97331.88;;;5.92;100.00
6668;BME280;3370;47.712;9.082;2023-04-08T06:05:25;97341.91;;;6.02;100.00
6668;BME280;3370;47.712;9.082;2023-04-08T06:07:51;97332.44;;;6.07;100.00
6668;BME280;3370;47.712;9.082;2023-04-08T06:10:17;97343.38;;;6.12;100.00
6668;BME280;3370;47.712;9.082;2023-04-08T06:12:42;97339.22;;;6.09;100.00
6668;BME280;3370;47.712;9.082;2023-04-08T06:15:08;97341.09;;;6.00;100.00
6668;BME280;3370;47.712;9.082;2023-04-08T06:17:38;97341.78;;;6.08;100.00
6668;BME280;3370;47.712;9.082;2023-04-08T06:20:07;97346.84;;;6.11;100.00
6668;BME280;3370;47.712;9.082;2023-04-08T06:22:36;97341.63;;;6.14;100.00
6668;BME280;3370;47.712;9.082;2023-04-08T06:25:03;97343.34;;;6.15;100.00
6668;BME280;3370;47.712;9.082;2023-04-08T06:27:29;97344.31;;;6.09;100.00
6668;BME280;3370;47.712;9.082;2023-04-08T06:29:55;97344.34;;;6.08;100.00
6668;BME280;3370;47.712;9.082;2023-04-08T06:32:21;97347.72;;;6.08;100.00
6668;BME280;3370;47.712;9.082;2023-04-08T06:34:47;97343.44;;;6.09;100.00
6668;BME280;3370;47.712;9.082;2023-04-08T06:37:13;97347.56;;;6.14;100.00
6668;BME280;3370;47.712;9.082;2023-04-08T06:39:39;97346.69;;;6.17;100.00
6668;BME280;3370;47.712;9.082;2023-04-08T06:42:05;97349.28;;;6.14;100.00
6668;BME280;3370;47.712;9.082;2023-04-08T06:44:31;97353.41;;;6.21;100.00
6668;BME280;3370;47.712;9.082;2023-04-08T06:47:02;97359.59;;;6.11;100.00
6668;BME280;3370;47.712;9.082;2023-04-08T06:49:28;97359.44;;;6.19;100.00
6668;BME280;3370;47.712;9.082;2023-04-08T06:51:54;97365.22;;;6.25;100.00
6668;BME280;3370;47.712;9.082;2023-04-08T06:54:20;97356.00;;;6.18;100.00
6668;BME280;3370;47.712;9.082;2023-04-08T06:56:46;97354.94;;;6.28;100.00
6668;BME280;3370;47.712;9.082;2023-04-08T06:59:12;97358.44;;;6.24;100.00
6668;BME280;3370;47.712;9.082;2023-04-08T07:01:38;97360.09;;;6.25;100.00
6668;BME280;3370;47.712;9.082;2023-04-08T07:04:03;97358.44;;;6.24;100.00
6668;BME280;3370;47.712;9.082;2023-04-08T07:06:29;97361.22;;;6.13;100.00
6668;BME280;3370;47.712;9.082;2023-04-08T07:08:55;97356.75;;;6.23;100.00
6668;BME280;3370;47.712;9.082;2023-04-08T07:11:21;97363.50;;;6.27;100.00
6668;BME280;3370;47.712;9.082;2023-04-08T07:13:46;97362.16;;;6.47;100.00
6668;BME280;3370;47.712;9.082;2023-04-08T07:16:12;97369.00;;;6.46;100.00
6668;BME280;3370;47.712;9.082;2023-04-08T07:18:38;97360.69;;;6.72;100.00
6668;BME280;3370;47.712;9.082;2023-04-08T07:21:05;97362.44;;;6.70;100.00
6668;BME280;3370;47.712;9.082;2023-04-08T07:23:31;97366.03;;;6.63;100.00
6668;BME280;3370;47.712;9.082;2023-04-08T07:26:03;97366.84;;;6.65;100.00
6668;BME280;3370;47.712;9.082;2023-04-08T07:28:30;97368.50;;;6.66;100.00
6668;BME280;3370;47.712;9.082;2023-04-08T07:31:00;97372.53;;;6.77;100.00
6668;BME280;3370;47.712;9.082;2023-04-08T07:33:32;97374.78;;;6.89;100.00
6668;BME280;3370;47.712;9.082;2023-04-08T07:35:58;97373.47;;;7.07;100.00
6668;BME280;3370;47.712;9.082;2023-04-08T07:38:23;97375.75;;;7.18;100.00
6668;BME280;3370;47.712;9.082;2023-04-08T07:40:49;97370.84;;;7.10;100.00
6668;BME280;3370;47.712;9.082;2023-04-08T07:43:16;97373.34;;;7.12;100.00
6668;BME280;3370;47.712;9.082;2023-04-08T07:45:42;97371.91;;;7.01;100.00
6668;BME280;3370;47.712;9.082;2023-04-08T07:48:07;97376.34;;;6.95;100.00
6668;BME280;3370;47.712;9.082;2023-04-08T07:50:35;97379.97;;;6.86;100.00
6668;BME280;3370;47.712;9.082;2023-04-08T07:53:02;97381.03;;;6.77;100.00
6668;BME280;3370;47.712;9.082;2023-04-08T07:55:31;97382.09;;;7.03;100.00
6668;BME280;3370;47.712;9.082;2023-04-08T07:57:57;97382.31;;;6.95;100.00
6668;BME280;3370;47.712;9.082;2023-04-08T08:00:23;97381.25;;;7.02;100.00
6668;BME280;3370;47.712;9.082;2023-04-08T08:02:49;97382.06;;;7.04;100.00
6668;BME280;3370;47.712;9.082;2023-04-08T08:05:15;97386.16;;;7.12;100.00
6668;BME280;3370;47.712;9.082;2023-04-08T08:07:40;97391.47;;;7.37;99.91
6668;BME280;3370;47.712;9.082;2023-04-08T08:10:07;97384.16;;;7.21;98.85
6668;BME280;3370;47.712;9.082;2023-04-08T08:12:33;97388.91;;;7.37;98.50
6668;BME280;3370;47.712;9.082;2023-04-08T08:14:59;97395.34;;;7.19;99.27
6668;BME280;3370;47.712;9.082;2023-04-08T08:17:25;97400.63;;;7.13;98.68
6668;BME280;3370;47.712;9.082;2023-04-08T08:19:54;97401.22;;;7.22;97.36
6668;BME280;3370;47.712;9.082;2023-04-08T08:22:21;97391.75;;;7.26;98.70
6668;BME280;3370;47.712;9.082;2023-04-08T08:24:47;97402.13;;;7.53;99.31
6668;BME280;3370;47.712;9.082;2023-04-08T08:27:13;97397.53;;;7.64;97.85
6668;BME280;3370;47.712;9.082;2023-04-08T08:29:39;97400.81;;;7.69;97.35
6668;BME280;3370;47.712;9.082;2023-04-08T08:32:05;97396.88;;;7.89;96.62
6668;BME280;3370;47.712;9.082;2023-04-08T08:34:34;97402.59;;;7.67;95.81
6668;BME280;3370;47.712;9.082;2023-04-08T08:37:00;97408.53;;;7.67;95.59
6668;BME280;3370;47.712;9.082;2023-04-08T08:39:26;97403.94;;;7.79;95.97
6668;BME280;3370;47.712;9.082;2023-04-08T08:41:52;97412.13;;;7.92;94.34
6668;BME280;3370;47.712;9.082;2023-04-08T08:44:17;97410.16;;;7.70;94.16
6668;BME280;3370;47.712;9.082;2023-04-08T08:46:44;97415.41;;;7.97;95.06
6668;BME280;3370;47.712;9.082;2023-04-08T08:49:11;97412.16;;;7.90;90.86
6668;BME280;3370;47.712;9.082;2023-04-08T08:51:42;97416.53;;;7.86;90.39
6668;BME280;3370;47.712;9.082;2023-04-08T08:54:10;97417.50;;;7.82;91.47
6668;BME280;3370;47.712;9.082;2023-04-08T08:56:35;97415.66;;;7.87;90.87
6668;BME280;3370;47.712;9.082;2023-04-08T08:59:01;97424.25;;;8.15;90.99
6668;BME280;3370;47.712;9.082;2023-04-08T09:01:36;97419.88;;;8.18;89.50
6668;BME280;3370;47.712;9.082;2023-04-08T09:04:16;97422.53;;;8.15;88.99
6668;BME280;3370;47.712;9.082;2023-04-08T09:06:46;97420.84;;;8.16;89.32
6668;BME280;3370;47.712;9.082;2023-04-08T09:09:12;97421.47;;;8.22;89.66
6668;BME280;3370;47.712;9.082;2023-04-08T09:11:43;97415.72;;;7.84;88.46
6668;BME280;3370;47.712;9.082;2023-04-08T09:14:24;97425.09;;;7.85;88.09
6668;BME280;3370;47.712;9.082;2023-04-08T09:16:51;97424.22;;;7.86;87.76
6668;BME280;3370;47.712;9.082;2023-04-08T09:19:17;97425.63;;;7.97;88.88
6668;BME280;3370;47.712;9.082;2023-04-08T09:21:43;97428.56;;;8.14;87.70
6668;BME280;3370;47.712;9.082;2023-04-08T09:24:28;97423.94;;;8.25;87.92
6668;BME280;3370;47.712;9.082;2023-04-08T09:26:54;97421.19;;;8.32;86.61
6668;BME280;3370;47.712;9.082;2023-04-08T09:29:23;97427.75;;;8.42;85.12
6668;BME280;3370;47.712;9.082;2023-04-08T09:31:54;97426.94;;;8.40;84.21
6668;BME280;3370;47.712;9.082;2023-04-08T09:34:20;97424.91;;;8.51;82.82
6668;BME280;3370;47.712;9.082;2023-04-08T09:36:48;97431.16;;;8.41;85.01
6668;BME280;3370;47.712;9.082;2023-04-08T09:39:14;97428.91;;;8.02;86.35
6668;BME280;3370;47.712;9.082;2023-04-08T09:41:42;97428.38;;;8.20;86.06
6668;BME280;3370;47.712;9.082;2023-04-08T09:44:10;97429.94;;;8.24;85.91
6668;BME280;3370;47.712;9.082;2023-04-08T09:52:10;97431.44;;;8.03;84.85
6668;BME280;3370;47.712;9.082;2023-04-08T09:54:46;97427.81;;;8.11;86.11
6668;BME280;3370;47.712;9.082;2023-04-08T09:57:27;97427.34;;;8.26;86.47
6668;BME280;3370;47.712;9.082;2023-04-08T10:00:08;97424.75;;;8.28;87.37
6668;BME280;3370;47.712;9.082;2023-04-08T10:03:12;97423.66;;;8.35;85.06
6668;BME280;3370;47.712;9.082;2023-04-08T10:05:43;97436.69;;;8.29;85.07
6668;BME280;3370;47.712;9.082;2023-04-08T10:08:10;97428.78;;;8.35;86.29
6668;BME280;3370;47.712;9.082;2023-04-08T10:10:38;97433.38;;;8.25;86.14
6668;BME280;3370;47.712;9.082;2023-04-08T10:13:06;97427.03;;;8.37;83.71
6668;BME280;3370;47.712;9.082;2023-04-08T10:15:36;97431.63;;;8.55;82.94
6668;BME280;3370;47.712;9.082;2023-04-08T10:23:02;97435.53;;;8.37;83.54
6668;BME280;3370;47.712;9.082;2023-04-08T10:25:29;97427.63;;;8.47;84.48
6668;BME280;3370;47.712;9.082;2023-04-08T10:30:55;97435.78;;;8.59;81.47
6668;BME280;3370;47.712;9.082;2023-04-08T10:33:32;97430.91;;;8.50;82.31
6668;BME280;3370;47.712;9.082;2023-04-08T10:36:09;97425.16;;;8.43;82.59
6668;BME280;3370;47.712;9.082;2023-04-08T10:38:39;97425.78;;;8.50;83.58
6668;BME280;3370;47.712;9.082;2023-04-08T10:41:08;97425.41;;;8.62;82.89
6668;BME280;3370;47.712;9.082;2023-04-08T10:43:35;97428.13;;;8.58;83.26
6668;BME280;3370;47.712;9.082;2023-04-08T10:46:02;97430.44;;;8.66;83.86
6668;BME280;3370;47.712;9.082;2023-04-08T10:48:29;97426.38;;;8.87;83.37
6668;BME280;3370;47.712;9.082;2023-04-08T10:51:03;97422.78;;;8.92;82.33
6668;BME280;3370;47.712;9.082;2023-04-08T10:53:37;97424.03;;;9.06;81.20
6668;BME280;3370;47.712;9.082;2023-04-08T10:56:13;97424.94;;;9.05;80.78
6668;BME280;3370;47.712;9.082;2023-04-08T10:58:54;97418.69;;;9.12;81.10
6668;BME280;3370;47.712;9.082;2023-04-08T11:01:24;97423.97;;;9.34;79.72
6668;BME280;3370;47.712;9.082;2023-04-08T11:03:50;97416.63;;;9.48;77.47
6668;BME280;3370;47.712;9.082;2023-04-08T11:06:16;97419.66;;;9.59;76.88
6668;BME280;3370;47.712;9.082;2023-04-08T11:08:43;97411.34;;;9.76;74.27
6668;BME280;3370;47.712;9.082;2023-04-08T11:11:11;97419.81;;;10.02;77.46
6668;BME280;3370;47.712;9.082;2023-04-08T11:13:42;97413.13;;;9.98;77.51
6668;BME280;3370;47.712;9.082;2023-04-08T11:16:09;97413.91;;;10.24;76.45
6668;BME280;3370;47.712;9.082;2023-04-08T11:18:37;97408.22;;;10.39;75.87
6668;BME280;3370;47.712;9.082;2023-04-08T11:21:08;97409.81;;;10.64;75.54
6668;BME280;3370;47.712;9.082;2023-04-08T11:23:35;97405.72;;;10.80;72.53
6668;BME280;3370;47.712;9.082;2023-04-08T11:26:01;97401.25;;;10.85;73.84
6668;BME280;3370;47.712;9.082;2023-04-08T11:28:28;97402.66;;;11.13;71.40
6668;BME280;3370;47.712;9.082;2023-04-08T11:30:54;97398.63;;;11.07;69.29
6668;BME280;3370;47.712;9.082;2023-04-08T11:33:23;97398.31;;;11.36;69.38
6668;BME280;3370;47.712;9.082;2023-04-08T11:35:50;97397.16;;;11.22;68.71
6668;BME280;3370;47.712;9.082;2023-04-08T11:38:16;97392.13;;;11.19;69.44
6668;BME280;3370;47.712;9.082;2023-04-08T11:40:54;97390.31;;;11.42;69.92
6668;BME280;3370;47.712;9.082;2023-04-08T11:43:21;97393.88;;;11.58;67.84
6668;BME280;3370;47.712;9.082;2023-04-08T11:45:47;97390.53;;;11.37;71.19
6668;BME280;3370;47.712;9.082;2023-04-08T11:48:15;97385.06;;;11.24;69.67
6668;BME280;3370;47.712;9.082;2023-04-08T11:50:43;97382.34;;;11.07;70.55
6668;BME280;3370;47.712;9.082;2023-04-08T11:53:24;97388.63;;;10.79;69.35
6668;BME280;3370;47.712;9.082;2023-04-08T11:55:50;97385.53;;;10.71;67.53
6668;BME280;3370;47.712;9.082;2023-04-08T11:58:17;97384.25;;;10.81;68.93
6668;BME280;3370;47.712;9.082;2023-04-08T12:00:43;97384.91;;;10.86;67.51
6668;BME280;3370;47.712;9.082;2023-04-08T12:03:10;97384.47;;;10.97;69.80
6668;BME280;3370;47.712;9.082;2023-04-08T12:05:36;97387.22;;;11.13;68.97
6668;BME280;3370;47.712;9.082;2023-04-08T12:08:02;97380.47;;;11.31;68.68
6668;BME280;3370;47.712;9.082;2023-04-08T12:10:28;97382.66;;;11.40;69.68
6668;BME280;3370;47.712;9.082;2023-04-08T12:12:53;97387.13;;;11.37;67.80
6668;BME280;3370;47.712;9.082;2023-04-08T12:15:19;97384.75;;;11.11;66.90
6668;BME280;3370;47.712;9.082;2023-04-08T12:17:45;97384.19;;;10.83;68.43
6668;BME280;3370;47.712;9.082;2023-04-08T12:20:11;97397.16;;;10.59;68.74
6668;BME280;3370;47.712;9.082;2023-04-08T12:22:38;97397.91;;;10.61;68.78
6668;BME280;3370;47.712;9.082;2023-04-08T12:25:04;97395.78;;;10.50;70.27
6668;BME280;3370;47.712;9.082;2023-04-08T12:27:31;97391.88;;;10.40;69.15
6668;BME280;3370;47.712;9.082;2023-04-08T12:30:01;97393.88;;;10.33;71.30
6668;BME280;3370;47.712;9.082;2023-04-08T12:32:27;97393.50;;;10.43;70.16
6668;BME280;3370;47.712;9.082;2023-04-08T12:34:53;97393.69;;;10.14;70.89
6668;BME280;3370;47.712;9.082;2023-04-08T12:37:19;97399.53;;;10.18;71.39
6668;BME280;3370;47.712;9.082;2023-04-08T12:39:45;97389.09;;;10.23;71.33
6668;BME280;3370;47.712;9.082;2023-04-08T12:42:12;97386.69;;;10.18;72.64
6668;BME280;3370;47.712;9.082;2023-04-08T12:44:38;97393.41;;;9.98;73.04
6668;BME280;3370;47.712;9.082;2023-04-08T12:47:03;97388.91;;;9.82;72.69
6668;BME280;3370;47.712;9.082;2023-04-08T12:49:29;97394.63;;;9.90;74.54
6668;BME280;3370;47.712;9.082;2023-04-08T12:51:55;97395.41;;;9.92;72.14
6668;BME280;3370;47.712;9.082;2023-04-08T12:54:21;97386.28;;;9.83;74.43
6668;BME280;3370;47.712;9.082;2023-04-08T12:56:47;97398.94;;;9.88;74.04
6668;BME280;3370;47.712;9.082;2023-04-08T12:59:13;97397.06;;;9.93;75.20
6668;BME280;3370;47.712;9.082;2023-04-08T13:01:39;97401.84;;;10.02;74.79
6668;BME280;3370;47.712;9.082;2023-04-08T13:04:05;97395.16;;;9.98;74.51
6668;BME280;3370;47.712;9.082;2023-04-08T13:06:31;97395.00;;;10.03;72.29
6668;BME280;3370;47.712;9.082;2023-04-08T13:08:56;97398.50;;;10.00;73.25
6668;BME280;3370;47.712;9.082;2023-04-08T13:11:22;97397.19;;;9.90;74.03
6668;BME280;3370;47.712;9.082;2023-04-08T13:13:48;97395.50;;;9.89;74.21
6668;BME280;3370;47.712;9.082;2023-04-08T13:16:14;97392.25;;;9.84;74.67
6668;BME280;3370;47.712;9.082;2023-04-08T13:18:40;97398.50;;;10.00;75.33
6668;BME280;3370;47.712;9.082;2023-04-08T13:21:07;97404.47;;;10.01;76.01
6668;BME280;3370;47.712;9.082;2023-04-08T13:23:33;97397.47;;;10.04;79.35
6668;BME280;3370;47.712;9.082;2023-04-08T13:26:00;97400.63;;;10.12;79.83
6668;BME280;3370;47.712;9.082;2023-04-08T13:28:26;97406.44;;;10.17;80.16
6668;BME280;3370;47.712;9.082;2023-04-08T13:30:51;97407.31;;;10.16;79.34
6668;BME280;3370;47.712;9.082;2023-04-08T13:33:18;97396.25;;;10.14;78.92
6668;BME280;3370;47.712;9.082;2023-04-08T13:35:44;97404.06;;;10.11;79.15
6668;BME280;3370;47.712;9.082;2023-04-08T13:38:10;97405.91;;;10.08;80.25
6668;BME280;3370;47.712;9.082;2023-04-08T13:40:37;97408.66;;;10.03;80.86
6668;BME280;3370;47.712;9.082;2023-04-08T13:43:03;97411.19;;;10.05;81.45
6668;BME280;3370;47.712;9.082;2023-04-08T13:45:28;97410.31;;;10.04;81.13
6668;BME280;3370;47.712;9.082;2023-04-08T13:47:54;97408.63;;;10.05;80.74